Auburn, New Hampshire
Current Conditions -  °F | °C
As of 4:53 PM on Thursday 23 Oct 2014 (Local Time) from KMHT Reporting Station
Overcast Overcast  
Wind Chill: 53°   Ceiling: 1800
Heat Index: 53°   Visibility: 10mi
Dew Point: 46°   Wind: 14mph
Humidity: 77%   Direction: 10°N
Pressure: 29.67"   Gusts: NA
Location:  43°N, 71.35°W
Report Text: KMHT 232053Z 01012KT 10SM OVC018 12/08 A2967 RMK AO2 PK WND 02026/2001 SLP062 60000 T01170078 53001
Loading
Personal Weather Stations






























Interactive Weather Map
Tropical Storm Tracking
New forecast layout! Learn more

10-Day Weather Forecast

Advertisements
Track Severe Weather on mobile